createdAt,value
2023-03-24T00:01:43.890Z,0.00
2023-03-24T00:03:44.270Z,0.00
2023-03-24T00:05:44.605Z,0.00
2023-03-24T00:07:46.657Z,0.00
2023-03-24T00:09:47.051Z,0.00
2023-03-24T00:11:47.355Z,0.00
2023-03-24T00:13:47.694Z,0.00
2023-03-24T00:15:47.971Z,0.00
2023-03-24T00:17:48.297Z,0.00
2023-03-24T00:19:48.635Z,0.00
2023-03-24T00:21:48.918Z,0.00
2023-03-24T00:23:49.190Z,0.00
2023-03-24T00:25:49.504Z,0.00
2023-03-24T00:27:49.799Z,0.00
2023-03-24T00:29:50.094Z,0.00
2023-03-24T00:31:50.371Z,0.00
2023-03-24T00:33:50.718Z,0.00
2023-03-24T00:35:51.003Z,0.00
2023-03-24T00:37:51.332Z,0.00
2023-03-24T00:39:51.688Z,0.00
2023-03-24T00:41:51.934Z,0.00
2023-03-24T00:43:52.262Z,0.00
2023-03-24T00:45:52.542Z,0.00
2023-03-24T00:47:52.890Z,0.00
2023-03-24T00:49:53.215Z,0.00
2023-03-24T00:51:53.539Z,0.00
2023-03-24T00:53:53.817Z,0.00
2023-03-24T00:55:54.092Z,0.00
2023-03-24T00:57:54.410Z,0.00
2023-03-24T00:59:54.804Z,0.00
2023-03-24T01:01:55.135Z,0.00
2023-03-24T01:03:55.421Z,0.00
2023-03-24T01:05:55.747Z,0.00
2023-03-24T01:07:56.035Z,0.00
2023-03-24T01:09:56.333Z,0.00
2023-03-24T01:11:56.608Z,0.00
2023-03-24T01:13:56.915Z,0.00
2023-03-24T01:15:57.231Z,0.00
2023-03-24T01:17:57.610Z,0.00
2023-03-24T01:19:57.953Z,0.00
2023-03-24T01:21:58.273Z,0.00
2023-03-24T01:23:58.606Z,0.00
2023-03-24T01:25:58.880Z,0.00
2023-03-24T01:27:59.217Z,0.00
2023-03-24T01:29:59.501Z,0.00
2023-03-24T01:31:59.912Z,0.00
2023-03-24T01:34:00.271Z,0.00
2023-03-24T01:36:00.635Z,0.00
2023-03-24T01:38:00.926Z,0.00
2023-03-24T01:40:01.280Z,0.00
2023-03-24T01:42:01.537Z,0.00
2023-03-24T01:44:01.844Z,0.00
2023-03-24T01:46:02.219Z,0.00
2023-03-24T01:48:02.546Z,0.00
2023-03-24T01:50:02.861Z,0.00
2023-03-24T01:52:03.184Z,0.00
2023-03-24T01:54:03.511Z,0.00
2023-03-24T01:56:03.824Z,0.00
2023-03-24T01:58:04.182Z,0.00
2023-03-24T02:00:04.494Z,0.00
2023-03-24T02:02:04.789Z,0.00
2023-03-24T02:04:05.109Z,0.00
2023-03-24T02:06:05.433Z,0.00
2023-03-24T02:08:05.751Z,0.00
2023-03-24T02:10:06.083Z,0.00
2023-03-24T02:12:06.348Z,0.00
2023-03-24T02:14:06.615Z,0.00
2023-03-24T02:16:06.997Z,0.00
2023-03-24T02:18:07.348Z,0.00
2023-03-24T02:20:07.682Z,0.00
2023-03-24T02:22:07.939Z,0.00
2023-03-24T02:24:08.214Z,0.00
2023-03-24T02:26:08.561Z,0.00
2023-03-24T02:28:08.815Z,0.00
2023-03-24T02:30:09.143Z,0.00
2023-03-24T02:32:09.817Z,0.00
2023-03-24T02:34:10.137Z,0.00
2023-03-24T02:36:10.538Z,0.00
2023-03-24T02:38:10.837Z,0.00
2023-03-24T02:40:11.122Z,0.00
2023-03-24T02:42:11.471Z,0.00
2023-03-24T02:44:11.711Z,0.00
2023-03-24T02:46:12.145Z,0.00
2023-03-24T02:48:12.391Z,0.00
2023-03-24T02:50:12.700Z,0.00
2023-03-24T02:52:13.029Z,0.00
2023-03-24T02:54:13.314Z,0.00
2023-03-24T02:56:13.568Z,0.00
2023-03-24T02:58:13.933Z,0.00
2023-03-24T03:00:19.069Z,0.00
2023-03-24T03:02:19.354Z,0.00
2023-03-24T03:04:19.732Z,0.00
2023-03-24T03:06:20.025Z,0.00
2023-03-24T03:08:20.399Z,0.00
2023-03-24T03:10:20.664Z,0.00
2023-03-24T03:12:20.970Z,0.00
2023-03-24T03:14:21.231Z,0.00
2023-03-24T03:16:21.634Z,0.00
2023-03-24T03:18:21.975Z,0.00
2023-03-24T03:20:22.258Z,0.00
2023-03-24T03:22:22.519Z,0.00
2023-03-24T03:24:22.830Z,0.00
2023-03-24T03:26:23.122Z,0.00
2023-03-24T03:28:23.428Z,0.00
2023-03-24T03:30:23.759Z,0.00
2023-03-24T03:32:24.104Z,0.00
2023-03-24T03:34:24.375Z,0.00
2023-03-24T03:36:24.691Z,0.00
2023-03-24T03:38:24.966Z,0.00
2023-03-24T03:40:25.289Z,0.00
2023-03-24T03:42:25.605Z,0.00
2023-03-24T03:44:25.874Z,0.00
2023-03-24T03:46:26.221Z,0.00
2023-03-24T03:48:26.627Z,0.00
2023-03-24T03:50:26.918Z,0.00
2023-03-24T03:52:27.257Z,0.00
2023-03-24T03:54:27.519Z,0.00
2023-03-24T03:56:27.866Z,0.00
2023-03-24T03:58:28.188Z,0.00
2023-03-24T04:00:28.552Z,0.00
2023-03-24T04:02:28.819Z,0.00
2023-03-24T04:04:29.108Z,0.00
2023-03-24T04:06:29.409Z,0.00
2023-03-24T04:08:29.750Z,0.00
2023-03-24T04:10:29.987Z,0.00
2023-03-24T04:12:30.369Z,0.00
2023-03-24T04:14:30.606Z,0.00
2023-03-24T04:16:30.983Z,0.00
2023-03-24T04:18:31.293Z,0.00
2023-03-24T04:20:31.555Z,0.00
2023-03-24T04:22:31.924Z,0.00
2023-03-24T04:24:32.158Z,0.00
2023-03-24T04:26:32.467Z,0.00
2023-03-24T04:28:32.784Z,0.00
2023-03-24T04:30:33.086Z,0.00
2023-03-24T04:32:33.449Z,0.00
2023-03-24T04:34:33.708Z,0.00
2023-03-24T04:36:34.079Z,0.00
2023-03-24T04:38:34.421Z,0.00
2023-03-24T04:40:34.695Z,0.00
2023-03-24T04:42:34.939Z,0.00
2023-03-24T04:44:35.274Z,0.00
2023-03-24T04:46:35.555Z,0.00
2023-03-24T04:48:35.938Z,0.00
2023-03-24T04:50:36.201Z,0.00
2023-03-24T04:52:36.455Z,0.00
2023-03-24T04:54:36.794Z,0.00
2023-03-24T04:56:37.097Z,0.00
2023-03-24T04:58:37.399Z,0.00
2023-03-24T05:00:37.699Z,0.00
2023-03-24T05:02:38.025Z,0.00
2023-03-24T05:04:38.344Z,0.00
2023-03-24T05:06:38.616Z,0.00
2023-03-24T05:08:38.907Z,0.00
2023-03-24T05:10:39.246Z,0.00
2023-03-24T05:12:39.541Z,4.00
2023-03-24T05:14:39.814Z,4.00
2023-03-24T05:16:40.237Z,4.00
2023-03-24T05:18:40.507Z,8.00
2023-03-24T05:20:40.791Z,12.00
2023-03-24T05:22:41.112Z,16.00
2023-03-24T05:24:41.378Z,24.00
2023-03-24T05:26:41.698Z,36.00
2023-03-24T05:28:41.988Z,44.00
2023-03-24T05:30:42.310Z,60.00
2023-03-24T05:32:43.015Z,68.00
2023-03-24T05:34:44.588Z,76.00
2023-03-24T05:36:44.884Z,96.00
2023-03-24T05:38:45.197Z,104.00
2023-03-24T05:40:45.489Z,112.00
2023-03-24T05:42:45.775Z,140.00
2023-03-24T05:44:46.103Z,172.00
2023-03-24T05:46:46.448Z,192.00
2023-03-24T05:48:46.985Z,184.00
2023-03-24T05:50:47.420Z,168.00
2023-03-24T05:52:47.734Z,192.00
2023-03-24T05:54:48.149Z,220.00
2023-03-24T05:56:53.348Z,256.00
2023-03-24T05:58:53.669Z,296.00
2023-03-24T06:00:53.977Z,348.00
2023-03-24T06:02:54.299Z,436.00
2023-03-24T06:04:54.737Z,528.00
2023-03-24T06:06:54.988Z,652.00
2023-03-24T06:08:55.297Z,656.00
2023-03-24T06:10:55.688Z,704.00
2023-03-24T06:12:55.904Z,904.00
2023-03-24T06:14:56.231Z,1028.00
2023-03-24T06:16:56.522Z,568.00
2023-03-24T06:18:56.849Z,592.00
2023-03-24T06:20:57.121Z,616.00
2023-03-24T06:22:57.420Z,448.00
2023-03-24T06:24:57.723Z,344.00
2023-03-24T06:26:58.021Z,484.00
2023-03-24T06:28:58.348Z,420.00
2023-03-24T06:30:58.624Z,388.00
2023-03-24T06:32:58.938Z,336.00
2023-03-24T06:34:59.226Z,352.00
2023-03-24T06:36:59.500Z,372.00
2023-03-24T06:38:59.812Z,576.00
2023-03-24T06:41:00.126Z,704.00
2023-03-24T06:43:00.445Z,812.00
2023-03-24T06:45:00.707Z,888.00
2023-03-24T06:47:01.006Z,676.00
2023-03-24T06:49:01.428Z,736.00
2023-03-24T06:51:01.680Z,576.00
2023-03-24T06:53:02.010Z,696.00
2023-03-24T06:55:02.325Z,532.00
2023-03-24T06:57:02.637Z,580.00
2023-03-24T06:59:02.949Z,804.00
2023-03-24T07:01:03.305Z,1016.00
2023-03-24T07:03:03.658Z,1136.00
2023-03-24T07:05:04.007Z,996.00
2023-03-24T07:07:28.320Z,1176.00
2023-03-24T07:09:09.491Z,1620.00
2023-03-24T07:11:10.056Z,2148.00
2023-03-24T07:13:10.484Z,2108.00
2023-03-24T07:15:10.783Z,1900.00
2023-03-24T07:17:11.208Z,1788.00
2023-03-24T07:19:16.261Z,1892.00
2023-03-24T07:21:16.588Z,1292.00
2023-03-24T07:23:16.934Z,1480.00
2023-03-24T07:25:17.321Z,1188.00
2023-03-24T07:27:17.561Z,1052.00
2023-03-24T07:29:17.930Z,1004.00
2023-03-24T07:31:18.287Z,1292.00
2023-03-24T07:33:18.674Z,1452.00
2023-03-24T07:35:18.907Z,1248.00
2023-03-24T07:37:19.239Z,1064.00
2023-03-24T07:39:19.538Z,1080.00
2023-03-24T07:41:19.988Z,1112.00
2023-03-24T07:43:21.141Z,1196.00
2023-03-24T07:45:21.450Z,984.00
2023-03-24T07:47:21.774Z,956.00
2023-03-24T07:49:22.140Z,1160.00
2023-03-24T07:51:22.424Z,1464.00
2023-03-24T07:53:22.864Z,1348.00
2023-03-24T07:55:23.138Z,908.00
2023-03-24T07:58:06.308Z,696.00
2023-03-24T08:00:07.108Z,752.00
2023-03-24T08:02:07.437Z,1112.00
2023-03-24T08:04:07.804Z,1288.00
2023-03-24T08:06:08.088Z,2148.00
2023-03-24T08:08:08.394Z,2656.00
2023-03-24T08:10:08.686Z,2004.00
2023-03-24T08:12:19.298Z,2424.00
2023-03-24T08:14:14.280Z,2488.00
2023-03-24T08:16:14.570Z,2112.00
2023-03-24T08:18:14.859Z,2068.00
2023-03-24T08:20:15.310Z,1988.00
2023-03-24T08:22:16.055Z,1912.00
2023-03-24T08:24:16.358Z,1608.00
2023-03-24T08:26:16.674Z,1448.00
2023-03-24T08:28:16.966Z,1548.00
2023-03-24T08:30:17.295Z,1716.00
2023-03-24T08:32:17.546Z,872.00
2023-03-24T08:34:18.007Z,664.00
2023-03-24T08:36:18.421Z,756.00
2023-03-24T08:38:19.208Z,920.00
2023-03-24T08:40:19.679Z,748.00
2023-03-24T08:42:24.739Z,736.00
2023-03-24T08:44:31.716Z,912.00
2023-03-24T08:46:33.122Z,1068.00
2023-03-24T08:48:33.616Z,1380.00
2023-03-24T08:50:34.034Z,1584.00
2023-03-24T08:52:34.292Z,1120.00
2023-03-24T08:54:34.655Z,1888.00
2023-03-24T08:56:34.980Z,2444.00
2023-03-24T08:58:35.269Z,1892.00
2023-03-24T09:00:35.562Z,2036.00
2023-03-24T09:02:35.889Z,1764.00
2023-03-24T09:04:36.353Z,2564.00
2023-03-24T09:06:36.660Z,2612.00
2023-03-24T09:08:36.978Z,1676.00
2023-03-24T09:10:37.289Z,1532.00
2023-03-24T09:12:42.488Z,1172.00
2023-03-24T09:14:42.765Z,1216.00
2023-03-24T09:16:43.086Z,904.00
2023-03-24T09:18:43.430Z,1072.00
2023-03-24T09:20:43.711Z,1112.00
2023-03-24T09:22:44.108Z,1144.00
2023-03-24T09:24:44.471Z,1300.00
2023-03-24T09:26:44.786Z,1964.00
2023-03-24T09:28:45.063Z,1992.00
2023-03-24T09:30:45.345Z,2000.00
2023-03-24T09:32:45.756Z,1520.00
2023-03-24T09:34:46.092Z,1552.00
2023-03-24T09:36:46.381Z,1632.00
2023-03-24T09:38:46.663Z,1696.00
2023-03-24T09:40:47.137Z,1704.00
2023-03-24T09:42:47.556Z,1132.00
2023-03-24T09:44:49.051Z,1444.00
2023-03-24T09:46:50.835Z,2520.00
2023-03-24T09:48:51.304Z,1924.00
2023-03-24T09:50:51.554Z,1564.00
2023-03-24T09:52:51.884Z,1268.00
2023-03-24T09:54:52.167Z,1240.00
2023-03-24T09:56:52.511Z,1460.00
2023-03-24T09:58:52.804Z,1276.00
2023-03-24T10:00:58.031Z,1312.00
2023-03-24T10:02:58.417Z,1436.00
2023-03-24T10:04:58.791Z,1752.00
2023-03-24T10:07:03.932Z,2144.00
2023-03-24T10:09:04.278Z,880.00
2023-03-24T10:11:04.547Z,644.00
2023-03-24T10:13:04.865Z,652.00
2023-03-24T10:15:05.182Z,708.00
2023-03-24T10:17:05.500Z,708.00
2023-03-24T10:19:05.797Z,888.00
2023-03-24T10:21:06.078Z,1268.00
2023-03-24T10:23:06.379Z,1532.00
2023-03-24T10:25:06.685Z,1052.00
2023-03-24T10:27:06.985Z,956.00
2023-03-24T10:29:07.285Z,956.00
2023-03-24T10:31:07.568Z,2204.00
2023-03-24T10:33:08.222Z,2208.00
2023-03-24T10:35:09.167Z,1184.00
2023-03-24T10:37:09.532Z,1128.00
2023-03-24T10:39:19.035Z,976.00
2023-03-24T10:41:15.080Z,848.00
2023-03-24T10:43:15.372Z,936.00
2023-03-24T10:45:15.736Z,1448.00
2023-03-24T10:47:16.025Z,1528.00
2023-03-24T10:49:16.308Z,1676.00
2023-03-24T10:51:16.668Z,900.00
2023-03-24T10:53:17.028Z,1208.00
2023-03-24T10:55:17.466Z,1028.00
2023-03-24T10:57:17.757Z,1180.00
2023-03-24T10:59:18.060Z,1248.00
2023-03-24T11:01:18.450Z,1616.00
2023-03-24T11:03:18.883Z,988.00
2023-03-24T11:05:19.154Z,452.00
2023-03-24T11:07:19.476Z,208.00
2023-03-24T11:09:19.845Z,508.00
2023-03-24T11:11:20.124Z,544.00
2023-03-24T11:13:20.464Z,604.00
2023-03-24T11:15:22.502Z,932.00
2023-03-24T11:17:23.688Z,916.00
2023-03-24T11:19:24.508Z,1128.00
2023-03-24T11:21:24.946Z,1768.00
2023-03-24T11:23:26.423Z,1420.00
2023-03-24T11:25:26.730Z,1360.00
2023-03-24T11:27:27.047Z,1676.00
2023-03-24T11:29:27.411Z,2524.00
2023-03-24T11:31:27.763Z,2540.00
2023-03-24T11:33:35.838Z,2640.00
2023-03-24T11:35:41.823Z,2784.00
2023-03-24T11:37:38.534Z,3268.00
2023-03-24T11:39:39.528Z,1888.00
2023-03-24T11:41:40.240Z,1352.00
2023-03-24T11:43:41.528Z,1312.00
2023-03-24T11:45:41.952Z,1620.00
2023-03-24T11:47:42.348Z,1764.00
2023-03-24T11:49:42.815Z,2236.00
2023-03-24T11:51:43.245Z,2080.00
2023-03-24T11:53:43.513Z,2276.00
2023-03-24T11:55:43.931Z,2684.00
2023-03-24T11:57:44.313Z,2948.00
2023-03-24T11:59:44.638Z,2860.00
2023-03-24T12:01:45.111Z,2764.00
2023-03-24T12:03:46.857Z,3580.00
2023-03-24T12:05:49.570Z,3384.00
2023-03-24T12:08:34.981Z,3556.00
2023-03-24T12:10:35.620Z,5324.00
2023-03-24T12:12:35.957Z,3408.00
2023-03-24T12:14:36.272Z,2520.00
2023-03-24T12:16:39.327Z,2844.00
2023-03-24T12:18:40.478Z,3368.00
2023-03-24T12:20:40.964Z,2900.00
2023-03-24T12:22:41.260Z,2888.00
2023-03-24T12:24:41.543Z,3048.00
2023-03-24T12:26:41.853Z,3856.00
2023-03-24T12:28:42.328Z,4656.00
2023-03-24T12:30:42.799Z,5668.00
2023-03-24T12:32:43.191Z,6924.00
2023-03-24T12:34:43.539Z,6220.00
2023-03-24T12:36:44.078Z,6904.00
2023-03-24T12:38:44.378Z,6500.00
2023-03-24T12:40:44.649Z,4840.00
2023-03-24T12:42:44.970Z,5264.00
2023-03-24T12:44:45.426Z,6008.00
2023-03-24T12:46:48.351Z,6992.00
2023-03-24T12:48:49.243Z,6096.00
2023-03-24T12:50:49.592Z,5140.00
2023-03-24T12:52:57.988Z,5316.00
2023-03-24T12:54:55.454Z,6292.00
2023-03-24T12:56:55.772Z,6904.00
2023-03-24T12:58:56.197Z,6936.00
2023-03-24T13:00:56.665Z,5908.00
2023-03-24T13:02:57.018Z,6044.00
2023-03-24T13:04:58.613Z,8328.00
2023-03-24T13:06:58.990Z,3932.00
2023-03-24T13:08:59.339Z,8772.00
2023-03-24T13:10:59.654Z,5036.00
2023-03-24T13:13:00.109Z,5688.00
2023-03-24T13:15:00.411Z,5020.00
2023-03-24T13:17:00.794Z,4732.00
2023-03-24T13:19:01.049Z,4804.00
2023-03-24T13:21:01.871Z,4212.00
2023-03-24T13:23:02.104Z,6168.00
2023-03-24T13:25:02.427Z,4876.00
2023-03-24T13:27:02.761Z,4044.00
2023-03-24T13:29:03.176Z,5424.00
2023-03-24T13:31:03.442Z,5252.00
2023-03-24T13:33:04.364Z,3808.00
2023-03-24T13:35:04.776Z,4264.00
2023-03-24T13:37:05.066Z,3772.00
2023-03-24T13:39:05.400Z,3720.00
2023-03-24T13:41:05.816Z,4136.00
2023-03-24T13:43:06.130Z,4828.00
2023-03-24T13:45:06.465Z,2900.00
2023-03-24T13:47:06.747Z,3708.00
2023-03-24T13:49:07.092Z,4248.00
2023-03-24T13:51:07.400Z,4332.00
2023-03-24T13:53:07.794Z,8028.00
2023-03-24T13:55:08.054Z,8300.00
2023-03-24T13:57:08.443Z,9012.00
2023-03-24T13:59:08.744Z,4924.00
2023-03-24T14:01:09.040Z,6728.00
2023-03-24T14:03:09.631Z,7004.00
2023-03-24T14:05:09.934Z,6792.00
2023-03-24T14:07:10.297Z,7052.00
2023-03-24T14:09:10.645Z,8344.00
2023-03-24T14:11:10.910Z,7752.00
2023-03-24T14:13:11.234Z,7556.00
2023-03-24T14:15:11.571Z,7424.00
2023-03-24T14:17:11.896Z,7072.00
2023-03-24T14:19:12.210Z,6892.00
2023-03-24T14:21:12.559Z,5752.00
2023-03-24T14:23:12.967Z,7608.00
2023-03-24T14:25:13.369Z,6544.00
2023-03-24T14:27:13.784Z,7608.00
2023-03-24T14:29:14.268Z,7628.00
2023-03-24T14:31:14.603Z,8208.00
2023-03-24T14:33:14.921Z,7868.00
2023-03-24T14:35:15.195Z,7228.00
2023-03-24T14:37:15.513Z,6924.00
2023-03-24T14:39:15.819Z,6644.00
2023-03-24T14:41:16.107Z,5328.00
2023-03-24T14:43:16.401Z,3836.00
2023-03-24T14:45:18.141Z,4088.00
2023-03-24T14:47:18.440Z,4900.00
2023-03-24T14:49:18.825Z,2700.00
2023-03-24T14:51:19.369Z,2400.00
2023-03-24T14:53:19.675Z,2624.00
2023-03-24T14:55:20.195Z,2588.00
2023-03-24T14:57:20.452Z,2984.00
2023-03-24T14:59:21.984Z,3288.00
2023-03-24T15:01:22.458Z,3528.00
2023-03-24T15:03:22.873Z,3860.00
2023-03-24T15:05:23.505Z,3672.00
2023-03-24T15:07:23.813Z,3392.00
2023-03-24T15:09:24.237Z,3264.00
2023-03-24T15:11:24.546Z,2928.00
2023-03-24T15:13:24.897Z,2816.00
2023-03-24T15:15:25.192Z,2600.00
2023-03-24T15:17:25.668Z,2872.00
2023-03-24T15:19:25.990Z,2956.00
2023-03-24T15:21:26.353Z,3112.00
2023-03-24T15:23:26.640Z,3248.00
2023-03-24T15:25:26.964Z,3412.00
2023-03-24T15:27:27.328Z,3792.00
2023-03-24T15:29:27.617Z,4184.00
2023-03-24T15:31:27.964Z,4420.00
2023-03-24T15:33:28.265Z,7640.00
2023-03-24T15:35:28.579Z,4688.00
2023-03-24T15:37:28.877Z,3772.00
2023-03-24T15:39:29.246Z,3004.00
2023-03-24T15:41:29.591Z,2172.00
2023-03-24T15:43:29.883Z,3412.00
2023-03-24T15:45:30.310Z,2008.00
2023-03-24T15:47:30.762Z,2456.00
2023-03-24T15:49:31.076Z,2128.00
2023-03-24T15:51:31.418Z,2124.00
2023-03-24T15:53:31.720Z,2228.00
2023-03-24T15:55:32.172Z,1988.00
2023-03-24T15:57:32.469Z,2068.00
2023-03-24T15:59:32.764Z,2356.00
2023-03-24T16:01:33.148Z,2752.00
2023-03-24T16:03:33.718Z,2524.00
2023-03-24T16:05:33.995Z,2228.00
2023-03-24T16:07:34.256Z,2888.00
2023-03-24T16:09:34.546Z,2776.00
2023-03-24T16:11:34.985Z,2264.00
2023-03-24T16:13:35.283Z,2500.00
2023-03-24T16:15:35.585Z,2416.00
2023-03-24T16:17:35.845Z,2524.00
2023-03-24T16:19:36.289Z,2436.00
2023-03-24T16:21:36.563Z,2748.00
2023-03-24T16:23:36.922Z,2600.00
2023-03-24T16:25:37.196Z,2272.00
2023-03-24T16:27:37.554Z,2364.00
2023-03-24T16:29:37.836Z,2200.00
2023-03-24T16:31:38.131Z,1968.00
2023-03-24T16:33:38.439Z,1768.00
2023-03-24T16:35:38.808Z,1776.00
2023-03-24T16:37:39.085Z,1640.00
2023-03-24T16:39:39.428Z,1404.00
2023-03-24T16:41:39.762Z,1260.00
2023-03-24T16:43:39.984Z,1276.00
2023-03-24T16:45:40.318Z,1148.00
2023-03-24T16:47:40.640Z,1196.00
2023-03-24T16:49:41.101Z,1212.00
2023-03-24T16:51:42.268Z,1292.00
2023-03-24T16:53:42.677Z,1460.00
2023-03-24T16:55:43.034Z,1112.00
2023-03-24T16:57:43.673Z,1252.00
2023-03-24T16:59:44.036Z,1132.00
2023-03-24T17:01:44.557Z,1164.00
2023-03-24T17:03:44.897Z,1048.00
2023-03-24T17:05:45.349Z,944.00
2023-03-24T17:07:45.731Z,860.00
2023-03-24T17:09:46.034Z,744.00
2023-03-24T17:11:46.360Z,700.00
2023-03-24T17:13:46.707Z,536.00
2023-03-24T17:15:47.201Z,520.00
2023-03-24T17:17:47.525Z,460.00
2023-03-24T17:19:47.938Z,428.00
2023-03-24T17:21:48.170Z,396.00
2023-03-24T17:23:48.516Z,328.00
2023-03-24T17:25:48.794Z,292.00
2023-03-24T17:27:49.127Z,256.00
2023-03-24T17:29:49.436Z,200.00
2023-03-24T17:31:49.771Z,184.00
2023-03-24T17:34:31.766Z,144.00
2023-03-24T17:36:32.046Z,120.00
2023-03-24T17:38:32.368Z,92.00
2023-03-24T17:40:32.683Z,72.00
2023-03-24T17:42:32.963Z,60.00
2023-03-24T17:44:33.279Z,60.00
2023-03-24T17:46:33.585Z,64.00
2023-03-24T17:48:33.839Z,48.00
2023-03-24T17:50:34.231Z,44.00
2023-03-24T17:52:34.488Z,32.00
2023-03-24T17:54:34.820Z,28.00
2023-03-24T17:56:35.153Z,20.00
2023-03-24T17:58:35.476Z,16.00
2023-03-24T18:00:35.821Z,12.00
2023-03-24T18:02:36.181Z,8.00
2023-03-24T18:04:36.523Z,4.00
2023-03-24T18:06:36.898Z,4.00
2023-03-24T18:08:37.194Z,0.00
2023-03-24T18:10:37.501Z,4.00
2023-03-24T18:12:37.815Z,0.00
2023-03-24T18:14:38.151Z,0.00
2023-03-24T18:16:38.499Z,0.00
2023-03-24T18:18:38.745Z,0.00
2023-03-24T18:20:39.092Z,0.00
2023-03-24T18:22:40.281Z,0.00
2023-03-24T18:24:40.601Z,0.00
2023-03-24T18:26:40.895Z,0.00
2023-03-24T18:28:41.187Z,8.00
2023-03-24T18:30:41.550Z,0.00
2023-03-24T18:32:41.920Z,0.00
2023-03-24T18:34:44.158Z,0.00
2023-03-24T18:36:44.906Z,0.00
2023-03-24T18:38:45.183Z,0.00
2023-03-24T18:40:45.531Z,0.00
2023-03-24T18:42:45.850Z,0.00
2023-03-24T18:44:46.153Z,0.00
2023-03-24T18:46:46.448Z,0.00
2023-03-24T18:48:46.797Z,0.00
2023-03-24T18:50:47.307Z,0.00
2023-03-24T18:52:47.770Z,0.00
2023-03-24T18:54:48.080Z,0.00
2023-03-24T18:56:48.452Z,0.00
2023-03-24T18:58:51.043Z,0.00
2023-03-24T19:00:54.779Z,0.00
2023-03-24T19:02:55.158Z,0.00
2023-03-24T19:04:55.479Z,0.00
2023-03-24T19:06:55.741Z,0.00
2023-03-24T19:08:56.184Z,0.00
2023-03-24T19:10:56.555Z,0.00
2023-03-24T19:12:56.853Z,0.00
2023-03-24T19:14:57.110Z,0.00
2023-03-24T19:16:57.448Z,0.00
2023-03-24T19:18:57.750Z,0.00
2023-03-24T19:20:58.089Z,0.00
2023-03-24T19:22:58.378Z,0.00
2023-03-24T19:24:58.716Z,0.00
2023-03-24T19:26:58.986Z,0.00
2023-03-24T19:28:59.284Z,0.00
2023-03-24T19:30:59.695Z,0.00
2023-03-24T19:33:04.869Z,0.00
2023-03-24T19:35:05.199Z,0.00
2023-03-24T19:37:05.522Z,0.00
2023-03-24T19:39:05.838Z,0.00
2023-03-24T19:41:10.995Z,0.00
2023-03-24T19:43:11.318Z,0.00
2023-03-24T19:45:11.588Z,0.00
2023-03-24T19:47:12.034Z,0.00
2023-03-24T19:49:12.287Z,0.00
2023-03-24T19:51:12.586Z,0.00
2023-03-24T19:53:13.059Z,0.00
2023-03-24T19:55:13.396Z,0.00
2023-03-24T19:57:13.746Z,0.00
2023-03-24T19:59:14.042Z,0.00
2023-03-24T20:01:14.397Z,0.00
2023-03-24T20:03:14.769Z,0.00
2023-03-24T20:05:15.131Z,0.00
2023-03-24T20:07:16.312Z,0.00
2023-03-24T20:09:16.682Z,0.00
2023-03-24T20:11:16.986Z,0.00
2023-03-24T20:13:17.371Z,0.00
2023-03-24T20:15:17.686Z,0.00
2023-03-24T20:17:18.129Z,0.00
2023-03-24T20:19:18.410Z,0.00
2023-03-24T20:21:18.726Z,0.00
2023-03-24T20:23:19.034Z,0.00
2023-03-24T20:25:19.342Z,0.00
2023-03-24T20:27:19.735Z,0.00
2023-03-24T20:29:20.037Z,0.00
2023-03-24T20:31:20.305Z,0.00
2023-03-24T20:33:21.323Z,0.00
2023-03-24T20:35:21.779Z,0.00
2023-03-24T20:37:22.146Z,0.00
2023-03-24T20:39:22.437Z,0.00
2023-03-24T20:41:22.734Z,0.00
2023-03-24T20:43:23.010Z,0.00
2023-03-24T20:45:24.394Z,0.00
2023-03-24T20:47:24.740Z,0.00
2023-03-24T20:49:25.090Z,0.00
2023-03-24T20:51:25.389Z,0.00
2023-03-24T20:53:25.852Z,0.00
2023-03-24T20:55:26.239Z,0.00
2023-03-24T20:57:26.533Z,0.00
2023-03-24T20:59:26.881Z,0.00
2023-03-24T21:01:27.223Z,0.00
2023-03-24T21:03:27.623Z,0.00
2023-03-24T21:05:27.959Z,0.00
2023-03-24T21:07:28.316Z,0.00
2023-03-24T21:09:28.559Z,0.00
2023-03-24T21:11:28.880Z,0.00
2023-03-24T21:13:37.344Z,0.00
2023-03-24T21:15:34.423Z,0.00
2023-03-24T21:17:34.900Z,0.00
2023-03-24T21:19:35.256Z,0.00
2023-03-24T21:21:35.572Z,0.00
2023-03-24T21:23:35.885Z,0.00
2023-03-24T21:25:38.575Z,0.00
2023-03-24T21:27:38.942Z,0.00
2023-03-24T21:29:39.267Z,0.00
2023-03-24T21:31:39.548Z,0.00
2023-03-24T21:33:39.927Z,0.00
2023-03-24T21:35:40.433Z,0.00
2023-03-24T21:37:40.700Z,0.00
2023-03-24T21:39:42.406Z,0.00
2023-03-24T21:41:43.439Z,0.00
2023-03-24T21:43:43.807Z,0.00
2023-03-24T21:45:44.459Z,0.00
2023-03-24T21:47:45.929Z,0.00
2023-03-24T21:49:46.352Z,0.00
2023-03-24T21:51:46.708Z,0.00
2023-03-24T21:53:47.008Z,0.00
2023-03-24T21:55:47.676Z,0.00
2023-03-24T21:57:48.007Z,0.00
2023-03-24T21:59:48.284Z,0.00
2023-03-24T22:01:48.720Z,0.00
2023-03-24T22:03:49.130Z,0.00
2023-03-24T22:05:49.760Z,0.00
2023-03-24T22:07:50.117Z,0.00
2023-03-24T22:09:50.705Z,0.00
2023-03-24T22:11:51.073Z,0.00
2023-03-24T22:13:51.568Z,0.00
2023-03-24T22:15:52.015Z,0.00
2023-03-24T22:17:52.478Z,0.00
2023-03-24T22:19:52.777Z,0.00
2023-03-24T22:21:54.151Z,0.00
2023-03-24T22:23:54.867Z,0.00
2023-03-24T22:25:55.286Z,0.00
2023-03-24T22:27:55.580Z,0.00
2023-03-24T22:29:55.866Z,0.00
2023-03-24T22:31:56.484Z,0.00
2023-03-24T22:33:56.790Z,0.00
2023-03-24T22:35:57.129Z,0.00
2023-03-24T22:37:57.407Z,0.00
2023-03-24T22:39:57.763Z,0.00
2023-03-24T22:41:58.029Z,0.00
2023-03-24T22:43:58.328Z,0.00
2023-03-24T22:45:58.621Z,0.00
2023-03-24T22:47:58.972Z,0.00
2023-03-24T22:49:59.304Z,0.00
2023-03-24T22:51:59.589Z,0.00
2023-03-24T22:53:59.909Z,0.00
2023-03-24T22:56:00.333Z,0.00
2023-03-24T22:58:00.586Z,0.00
2023-03-24T23:00:00.980Z,0.00
2023-03-24T23:02:09.152Z,0.00
2023-03-24T23:04:06.500Z,0.00
2023-03-24T23:06:06.775Z,0.00
2023-03-24T23:08:07.077Z,0.00
2023-03-24T23:10:07.450Z,0.00
2023-03-24T23:12:09.548Z,0.00
2023-03-24T23:14:09.909Z,0.00
2023-03-24T23:16:10.176Z,0.00
2023-03-24T23:18:10.874Z,0.00
2023-03-24T23:20:11.186Z,0.00
2023-03-24T23:22:11.491Z,0.00
2023-03-24T23:24:12.015Z,0.00
2023-03-24T23:26:12.376Z,0.00
2023-03-24T23:28:17.557Z,0.00
2023-03-24T23:30:17.844Z,0.00
2023-03-24T23:32:18.265Z,0.00
2023-03-24T23:34:18.554Z,0.00
2023-03-24T23:36:19.312Z,0.00
2023-03-24T23:38:19.800Z,0.00
2023-03-24T23:40:20.426Z,0.00
2023-03-24T23:42:21.421Z,0.00
2023-03-24T23:44:22.444Z,0.00
2023-03-24T23:46:22.889Z,0.00
2023-03-24T23:48:23.139Z,0.00
2023-03-24T23:50:23.679Z,0.00
2023-03-24T23:52:23.919Z,0.00
2023-03-24T23:54:24.375Z,0.00
2023-03-24T23:56:24.637Z,0.00
2023-03-24T23:58:24.960Z,0.00
